Athol, Pennsylvania
Current Conditions -  °F | °C
As of 12:54 PM on Tuesday 21 Oct 2014 (Local Time) from KPTW Reporting Station
Overcast Overcast  
Wind Chill: 62°   Ceiling: 5500
Heat Index: 62°   Visibility: 10mi
Dew Point: 45°   Wind: 0mph
Humidity: 53%   Direction: NA
Pressure: 29.85"   Gusts: NA
Location:  40.3194°N, 75.7364°W
Report Text: KPTW 211654Z AUTO 00000KT 10SM OVC055 17/07 A2985 RMK AO2 SLP106 T01670072
Loading
Personal Weather Stations






























Interactive Weather Map
Tropical Storm Tracking
New forecast layout! Learn more

10-Day Weather Forecast

Advertisements
Track Severe Weather on mobile